sensor_id;sensor_type;location;lat;lon;timestamp;P1;durP1;ratioP1;P2;durP2;ratioP2
24449;SDS011;13349;50.984;5.822;2023-02-23T00:01:59;65.88;;;34.75;;
24449;SDS011;13349;50.984;5.822;2023-02-23T00:04:30;67.68;;;35.70;;
24449;SDS011;13349;50.984;5.822;2023-02-23T00:06:58;65.38;;;35.58;;
24449;SDS011;13349;50.984;5.822;2023-02-23T00:09:26;62.58;;;35.45;;
24449;SDS011;13349;50.984;5.822;2023-02-23T00:11:59;64.22;;;35.72;;
24449;SDS011;13349;50.984;5.822;2023-02-23T00:14:33;66.40;;;35.35;;
24449;SDS011;13349;50.984;5.822;2023-02-23T00:17:02;65.97;;;35.88;;
24449;SDS011;13349;50.984;5.822;2023-02-23T00:19:29;64.88;;;35.95;;
24449;SDS011;13349;50.984;5.822;2023-02-23T00:21:57;63.97;;;33.92;;
24449;SDS011;13349;50.984;5.822;2023-02-23T00:24:25;65.38;;;35.65;;
24449;SDS011;13349;50.984;5.822;2023-02-23T00:26:54;67.20;;;36.15;;
24449;SDS011;13349;50.984;5.822;2023-02-23T00:29:22;65.57;;;35.95;;
24449;SDS011;13349;50.984;5.822;2023-02-23T00:31:51;63.28;;;35.47;;
24449;SDS011;13349;50.984;5.822;2023-02-23T00:34:20;67.97;;;36.03;;
24449;SDS011;13349;50.984;5.822;2023-02-23T00:36:48;61.70;;;34.25;;
24449;SDS011;13349;50.984;5.822;2023-02-23T00:39:18;60.85;;;33.75;;
24449;SDS011;13349;50.984;5.822;2023-02-23T00:41:46;61.05;;;34.05;;
24449;SDS011;13349;50.984;5.822;2023-02-23T00:44:14;60.33;;;34.03;;
24449;SDS011;13349;50.984;5.822;2023-02-23T00:46:41;62.53;;;34.70;;
24449;SDS011;13349;50.984;5.822;2023-02-23T00:49:11;61.72;;;34.10;;
24449;SDS011;13349;50.984;5.822;2023-02-23T00:51:39;64.80;;;34.55;;
24449;SDS011;13349;50.984;5.822;2023-02-23T00:54:07;62.58;;;34.50;;
24449;SDS011;13349;50.984;5.822;2023-02-23T00:56:35;64.15;;;34.22;;
24449;SDS011;13349;50.984;5.822;2023-02-23T00:59:04;65.25;;;35.15;;
24449;SDS011;13349;50.984;5.822;2023-02-23T01:01:31;61.78;;;34.58;;
24449;SDS011;13349;50.984;5.822;2023-02-23T01:03:59;68.50;;;36.72;;
24449;SDS011;13349;50.984;5.822;2023-02-23T01:06:28;66.85;;;35.38;;
24449;SDS011;13349;50.984;5.822;2023-02-23T01:08:56;71.18;;;37.42;;
24449;SDS011;13349;50.984;5.822;2023-02-23T01:11:25;64.70;;;35.58;;
24449;SDS011;13349;50.984;5.822;2023-02-23T01:13:56;64.45;;;35.47;;
24449;SDS011;13349;50.984;5.822;2023-02-23T01:16:25;78.53;;;38.03;;
24449;SDS011;13349;50.984;5.822;2023-02-23T01:18:54;71.53;;;36.80;;
24449;SDS011;13349;50.984;5.822;2023-02-23T01:21:23;78.57;;;37.97;;
24449;SDS011;13349;50.984;5.822;2023-02-23T01:23:53;74.00;;;37.03;;
24449;SDS011;13349;50.984;5.822;2023-02-23T01:26:22;77.70;;;39.10;;
24449;SDS011;13349;50.984;5.822;2023-02-23T01:28:51;77.60;;;38.63;;
24449;SDS011;13349;50.984;5.822;2023-02-23T01:31:20;77.05;;;38.88;;
24449;SDS011;13349;50.984;5.822;2023-02-23T01:33:50;80.03;;;39.65;;
24449;SDS011;13349;50.984;5.822;2023-02-23T01:36:18;74.80;;;38.10;;
24449;SDS011;13349;50.984;5.822;2023-02-23T01:38:46;78.82;;;38.58;;
24449;SDS011;13349;50.984;5.822;2023-02-23T01:41:15;71.38;;;37.20;;
24449;SDS011;13349;50.984;5.822;2023-02-23T01:43:55;77.30;;;38.20;;
24449;SDS011;13349;50.984;5.822;2023-02-23T01:46:23;68.28;;;37.45;;
24449;SDS011;13349;50.984;5.822;2023-02-23T01:48:50;71.85;;;36.28;;
24449;SDS011;13349;50.984;5.822;2023-02-23T01:51:21;72.75;;;38.17;;
24449;SDS011;13349;50.984;5.822;2023-02-23T01:53:51;70.05;;;38.15;;
24449;SDS011;13349;50.984;5.822;2023-02-23T01:56:25;73.05;;;39.00;;
24449;SDS011;13349;50.984;5.822;2023-02-23T02:01:24;76.47;;;38.17;;
24449;SDS011;13349;50.984;5.822;2023-02-23T02:03:54;75.40;;;39.15;;
24449;SDS011;13349;50.984;5.822;2023-02-23T02:06:24;73.15;;;38.20;;
24449;SDS011;13349;50.984;5.822;2023-02-23T02:08:53;72.47;;;37.58;;
24449;SDS011;13349;50.984;5.822;2023-02-23T02:11:23;71.97;;;37.15;;
24449;SDS011;13349;50.984;5.822;2023-02-23T02:13:55;68.78;;;37.40;;
24449;SDS011;13349;50.984;5.822;2023-02-23T02:16:38;65.07;;;36.88;;
24449;SDS011;13349;50.984;5.822;2023-02-23T02:22:28;65.63;;;36.28;;
24449;SDS011;13349;50.984;5.822;2023-02-23T02:25:21;65.13;;;37.08;;
24449;SDS011;13349;50.984;5.822;2023-02-23T02:34:36;62.90;;;36.20;;
24449;SDS011;13349;50.984;5.822;2023-02-23T02:37:19;65.43;;;36.85;;
24449;SDS011;13349;50.984;5.822;2023-02-23T02:39:58;65.63;;;37.50;;
24449;SDS011;13349;50.984;5.822;2023-02-23T02:42:52;69.75;;;38.10;;
24449;SDS011;13349;50.984;5.822;2023-02-23T02:45:26;67.90;;;39.30;;
24449;SDS011;13349;50.984;5.822;2023-02-23T02:48:02;59.92;;;36.90;;
24449;SDS011;13349;50.984;5.822;2023-02-23T02:50:40;67.90;;;36.30;;
24449;SDS011;13349;50.984;5.822;2023-02-23T02:53:13;58.63;;;34.60;;
24449;SDS011;13349;50.984;5.822;2023-02-23T02:55:45;56.40;;;34.25;;
24449;SDS011;13349;50.984;5.822;2023-02-23T02:58:14;59.25;;;35.28;;
24449;SDS011;13349;50.984;5.822;2023-02-23T03:00:47;59.15;;;33.75;;
24449;SDS011;13349;50.984;5.822;2023-02-23T03:03:35;59.70;;;34.00;;
24449;SDS011;13349;50.984;5.822;2023-02-23T03:06:21;58.80;;;34.22;;
24449;SDS011;13349;50.984;5.822;2023-02-23T03:09:14;63.45;;;34.13;;
24449;SDS011;13349;50.984;5.822;2023-02-23T03:12:09;57.08;;;33.53;;
24449;SDS011;13349;50.984;5.822;2023-02-23T03:15:03;58.72;;;34.28;;
24449;SDS011;13349;50.984;5.822;2023-02-23T03:18:01;60.35;;;33.58;;
24449;SDS011;13349;50.984;5.822;2023-02-23T03:20:56;62.88;;;34.00;;
24449;SDS011;13349;50.984;5.822;2023-02-23T03:26:41;58.17;;;33.10;;
24449;SDS011;13349;50.984;5.822;2023-02-23T03:29:31;54.80;;;32.83;;
24449;SDS011;13349;50.984;5.822;2023-02-23T03:32:22;57.83;;;33.05;;
24449;SDS011;13349;50.984;5.822;2023-02-23T03:35:13;53.20;;;33.00;;
24449;SDS011;13349;50.984;5.822;2023-02-23T03:38:05;57.63;;;33.13;;
24449;SDS011;13349;50.984;5.822;2023-02-23T03:40:54;59.72;;;33.15;;
24449;SDS011;13349;50.984;5.822;2023-02-23T03:43:43;53.25;;;32.38;;
24449;SDS011;13349;50.984;5.822;2023-02-23T03:46:31;56.70;;;33.15;;
24449;SDS011;13349;50.984;5.822;2023-02-23T03:49:18;51.35;;;31.13;;
24449;SDS011;13349;50.984;5.822;2023-02-23T03:52:04;51.92;;;30.85;;
24449;SDS011;13349;50.984;5.822;2023-02-23T03:54:55;50.55;;;31.17;;
24449;SDS011;13349;50.984;5.822;2023-02-23T03:57:42;50.35;;;30.80;;
24449;SDS011;13349;50.984;5.822;2023-02-23T04:00:31;51.75;;;30.83;;
24449;SDS011;13349;50.984;5.822;2023-02-23T04:03:19;52.10;;;31.75;;
24449;SDS011;13349;50.984;5.822;2023-02-23T04:06:06;49.22;;;30.83;;
24449;SDS011;13349;50.984;5.822;2023-02-23T04:08:55;44.78;;;28.50;;
24449;SDS011;13349;50.984;5.822;2023-02-23T04:11:44;47.83;;;28.55;;
24449;SDS011;13349;50.984;5.822;2023-02-23T04:14:35;49.38;;;30.60;;
24449;SDS011;13349;50.984;5.822;2023-02-23T04:17:07;47.63;;;29.92;;
24449;SDS011;13349;50.984;5.822;2023-02-23T04:19:34;56.80;;;32.60;;
24449;SDS011;13349;50.984;5.822;2023-02-23T04:22:02;51.28;;;31.40;;
24449;SDS011;13349;50.984;5.822;2023-02-23T04:24:29;55.28;;;31.65;;
24449;SDS011;13349;50.984;5.822;2023-02-23T04:26:56;53.30;;;32.10;;
24449;SDS011;13349;50.984;5.822;2023-02-23T04:29:23;56.47;;;32.92;;
24449;SDS011;13349;50.984;5.822;2023-02-23T04:31:50;57.28;;;33.20;;
24449;SDS011;13349;50.984;5.822;2023-02-23T04:34:19;55.55;;;32.78;;
24449;SDS011;13349;50.984;5.822;2023-02-23T04:36:46;51.97;;;32.08;;
24449;SDS011;13349;50.984;5.822;2023-02-23T04:39:15;55.83;;;31.48;;
24449;SDS011;13349;50.984;5.822;2023-02-23T04:41:42;53.88;;;31.55;;
24449;SDS011;13349;50.984;5.822;2023-02-23T04:44:10;55.80;;;32.72;;
24449;SDS011;13349;50.984;5.822;2023-02-23T04:46:37;50.55;;;30.85;;
24449;SDS011;13349;50.984;5.822;2023-02-23T04:49:04;48.60;;;30.63;;
24449;SDS011;13349;50.984;5.822;2023-02-23T04:51:33;51.83;;;31.85;;
24449;SDS011;13349;50.984;5.822;2023-02-23T04:54:01;49.60;;;31.23;;
24449;SDS011;13349;50.984;5.822;2023-02-23T04:56:28;49.35;;;30.83;;
24449;SDS011;13349;50.984;5.822;2023-02-23T04:58:56;49.67;;;31.20;;
24449;SDS011;13349;50.984;5.822;2023-02-23T05:01:24;49.03;;;30.67;;
24449;SDS011;13349;50.984;5.822;2023-02-23T05:03:52;45.60;;;29.00;;
24449;SDS011;13349;50.984;5.822;2023-02-23T05:06:20;47.65;;;29.38;;
24449;SDS011;13349;50.984;5.822;2023-02-23T05:08:49;44.72;;;29.75;;
24449;SDS011;13349;50.984;5.822;2023-02-23T05:11:16;48.75;;;30.25;;
24449;SDS011;13349;50.984;5.822;2023-02-23T05:13:43;51.85;;;29.60;;
24449;SDS011;13349;50.984;5.822;2023-02-23T05:16:11;45.88;;;28.15;;
24449;SDS011;13349;50.984;5.822;2023-02-23T05:18:38;44.00;;;28.25;;
24449;SDS011;13349;50.984;5.822;2023-02-23T05:21:06;45.33;;;28.40;;
24449;SDS011;13349;50.984;5.822;2023-02-23T05:23:34;46.80;;;30.00;;
24449;SDS011;13349;50.984;5.822;2023-02-23T05:26:04;50.65;;;31.50;;
24449;SDS011;13349;50.984;5.822;2023-02-23T05:28:34;48.28;;;29.77;;
24449;SDS011;13349;50.984;5.822;2023-02-23T05:31:02;47.78;;;29.77;;
24449;SDS011;13349;50.984;5.822;2023-02-23T05:33:30;47.78;;;28.85;;
24449;SDS011;13349;50.984;5.822;2023-02-23T05:35:57;48.83;;;29.20;;
24449;SDS011;13349;50.984;5.822;2023-02-23T05:38:25;46.95;;;29.75;;
24449;SDS011;13349;50.984;5.822;2023-02-23T05:40:52;46.50;;;28.92;;
24449;SDS011;13349;50.984;5.822;2023-02-23T05:43:21;49.50;;;28.90;;
24449;SDS011;13349;50.984;5.822;2023-02-23T05:45:48;47.08;;;28.50;;
24449;SDS011;13349;50.984;5.822;2023-02-23T05:48:15;43.67;;;28.08;;
24449;SDS011;13349;50.984;5.822;2023-02-23T05:50:42;45.50;;;28.52;;
24449;SDS011;13349;50.984;5.822;2023-02-23T05:53:09;46.08;;;28.83;;
24449;SDS011;13349;50.984;5.822;2023-02-23T05:55:36;46.40;;;28.58;;
24449;SDS011;13349;50.984;5.822;2023-02-23T05:58:04;43.58;;;27.98;;
24449;SDS011;13349;50.984;5.822;2023-02-23T06:00:32;50.25;;;28.63;;
24449;SDS011;13349;50.984;5.822;2023-02-23T06:03:00;45.20;;;26.67;;
24449;SDS011;13349;50.984;5.822;2023-02-23T06:05:27;51.10;;;29.55;;
24449;SDS011;13349;50.984;5.822;2023-02-23T06:07:55;50.17;;;29.92;;
24449;SDS011;13349;50.984;5.822;2023-02-23T06:10:22;45.85;;;28.52;;
24449;SDS011;13349;50.984;5.822;2023-02-23T06:12:49;51.85;;;29.92;;
24449;SDS011;13349;50.984;5.822;2023-02-23T06:15:16;46.50;;;28.30;;
24449;SDS011;13349;50.984;5.822;2023-02-23T06:17:45;52.88;;;31.23;;
24449;SDS011;13349;50.984;5.822;2023-02-23T06:20:12;57.22;;;29.80;;
24449;SDS011;13349;50.984;5.822;2023-02-23T06:22:40;56.25;;;30.95;;
24449;SDS011;13349;50.984;5.822;2023-02-23T06:25:07;59.40;;;31.95;;
24449;SDS011;13349;50.984;5.822;2023-02-23T06:27:37;50.08;;;29.27;;
24449;SDS011;13349;50.984;5.822;2023-02-23T06:30:04;57.92;;;31.70;;
24449;SDS011;13349;50.984;5.822;2023-02-23T06:32:32;62.40;;;32.42;;
24449;SDS011;13349;50.984;5.822;2023-02-23T06:35:01;56.45;;;31.88;;
24449;SDS011;13349;50.984;5.822;2023-02-23T06:37:30;62.40;;;32.15;;
24449;SDS011;13349;50.984;5.822;2023-02-23T06:39:57;58.20;;;31.55;;
24449;SDS011;13349;50.984;5.822;2023-02-23T06:42:24;58.25;;;31.88;;
24449;SDS011;13349;50.984;5.822;2023-02-23T06:44:51;57.00;;;32.00;;
24449;SDS011;13349;50.984;5.822;2023-02-23T06:47:19;61.90;;;32.05;;
24449;SDS011;13349;50.984;5.822;2023-02-23T06:49:46;57.28;;;30.95;;
24449;SDS011;13349;50.984;5.822;2023-02-23T06:52:14;52.70;;;30.83;;
24449;SDS011;13349;50.984;5.822;2023-02-23T06:54:42;55.80;;;31.55;;
24449;SDS011;13349;50.984;5.822;2023-02-23T06:57:09;56.22;;;30.60;;
24449;SDS011;13349;50.984;5.822;2023-02-23T06:59:37;57.05;;;31.13;;
24449;SDS011;13349;50.984;5.822;2023-02-23T07:02:04;52.30;;;28.73;;
24449;SDS011;13349;50.984;5.822;2023-02-23T07:04:31;54.13;;;30.65;;
24449;SDS011;13349;50.984;5.822;2023-02-23T07:06:58;51.70;;;28.80;;
24449;SDS011;13349;50.984;5.822;2023-02-23T07:09:27;60.25;;;29.98;;
24449;SDS011;13349;50.984;5.822;2023-02-23T07:11:54;65.68;;;29.48;;
24449;SDS011;13349;50.984;5.822;2023-02-23T07:14:21;61.15;;;29.50;;
24449;SDS011;13349;50.984;5.822;2023-02-23T07:16:48;62.55;;;30.17;;
24449;SDS011;13349;50.984;5.822;2023-02-23T07:19:16;70.90;;;31.63;;
24449;SDS011;13349;50.984;5.822;2023-02-23T07:21:43;67.32;;;30.30;;
24449;SDS011;13349;50.984;5.822;2023-02-23T07:24:10;66.40;;;31.63;;
24449;SDS011;13349;50.984;5.822;2023-02-23T07:26:38;68.93;;;31.02;;
24449;SDS011;13349;50.984;5.822;2023-02-23T07:29:10;70.97;;;30.88;;
24449;SDS011;13349;50.984;5.822;2023-02-23T07:31:38;68.18;;;30.42;;
24449;SDS011;13349;50.984;5.822;2023-02-23T07:34:06;66.30;;;29.05;;
24449;SDS011;13349;50.984;5.822;2023-02-23T07:36:34;69.78;;;31.25;;
24449;SDS011;13349;50.984;5.822;2023-02-23T07:39:02;66.97;;;28.45;;
24449;SDS011;13349;50.984;5.822;2023-02-23T07:41:29;65.18;;;29.42;;
24449;SDS011;13349;50.984;5.822;2023-02-23T07:43:58;64.72;;;30.05;;
24449;SDS011;13349;50.984;5.822;2023-02-23T07:46:26;68.30;;;31.10;;
24449;SDS011;13349;50.984;5.822;2023-02-23T07:48:53;70.70;;;30.88;;
24449;SDS011;13349;50.984;5.822;2023-02-23T07:51:20;72.18;;;32.33;;
24449;SDS011;13349;50.984;5.822;2023-02-23T07:53:47;73.22;;;30.63;;
24449;SDS011;13349;50.984;5.822;2023-02-23T07:56:15;68.55;;;30.77;;
24449;SDS011;13349;50.984;5.822;2023-02-23T07:58:42;67.68;;;31.25;;
24449;SDS011;13349;50.984;5.822;2023-02-23T08:01:12;67.82;;;31.08;;
24449;SDS011;13349;50.984;5.822;2023-02-23T08:03:40;71.18;;;31.38;;
24449;SDS011;13349;50.984;5.822;2023-02-23T08:06:13;73.22;;;31.38;;
24449;SDS011;13349;50.984;5.822;2023-02-23T08:08:41;82.88;;;32.75;;
24449;SDS011;13349;50.984;5.822;2023-02-23T08:11:08;67.45;;;31.27;;
24449;SDS011;13349;50.984;5.822;2023-02-23T08:13:36;71.13;;;32.47;;
24449;SDS011;13349;50.984;5.822;2023-02-23T08:16:04;68.80;;;31.23;;
24449;SDS011;13349;50.984;5.822;2023-02-23T08:18:33;73.85;;;30.85;;
24449;SDS011;13349;50.984;5.822;2023-02-23T08:21:01;71.22;;;31.08;;
24449;SDS011;13349;50.984;5.822;2023-02-23T08:23:29;70.85;;;31.10;;
24449;SDS011;13349;50.984;5.822;2023-02-23T08:25:57;69.75;;;30.95;;
24449;SDS011;13349;50.984;5.822;2023-02-23T08:28:25;70.35;;;30.55;;
24449;SDS011;13349;50.984;5.822;2023-02-23T08:30:52;72.78;;;31.60;;
24449;SDS011;13349;50.984;5.822;2023-02-23T08:33:19;70.93;;;31.60;;
24449;SDS011;13349;50.984;5.822;2023-02-23T08:35:48;74.45;;;32.53;;
24449;SDS011;13349;50.984;5.822;2023-02-23T08:38:17;76.75;;;33.60;;
24449;SDS011;13349;50.984;5.822;2023-02-23T08:40:45;78.93;;;32.28;;
24449;SDS011;13349;50.984;5.822;2023-02-23T08:43:12;69.15;;;30.90;;
24449;SDS011;13349;50.984;5.822;2023-02-23T08:45:39;69.85;;;29.98;;
24449;SDS011;13349;50.984;5.822;2023-02-23T08:48:06;66.88;;;30.73;;
24449;SDS011;13349;50.984;5.822;2023-02-23T08:50:34;73.25;;;32.40;;
24449;SDS011;13349;50.984;5.822;2023-02-23T08:53:02;71.13;;;32.03;;
24449;SDS011;13349;50.984;5.822;2023-02-23T08:55:31;75.20;;;32.30;;
24449;SDS011;13349;50.984;5.822;2023-02-23T08:57:59;74.03;;;31.05;;
24449;SDS011;13349;50.984;5.822;2023-02-23T09:00:27;71.60;;;30.98;;
24449;SDS011;13349;50.984;5.822;2023-02-23T09:02:55;68.18;;;30.23;;
24449;SDS011;13349;50.984;5.822;2023-02-23T09:05:22;68.68;;;31.30;;
24449;SDS011;13349;50.984;5.822;2023-02-23T09:07:49;69.55;;;30.98;;
24449;SDS011;13349;50.984;5.822;2023-02-23T09:10:18;73.22;;;30.63;;
24449;SDS011;13349;50.984;5.822;2023-02-23T09:12:49;72.05;;;31.08;;
24449;SDS011;13349;50.984;5.822;2023-02-23T09:15:16;76.55;;;32.25;;
24449;SDS011;13349;50.984;5.822;2023-02-23T09:17:44;73.18;;;31.75;;
24449;SDS011;13349;50.984;5.822;2023-02-23T09:20:12;67.57;;;30.38;;
24449;SDS011;13349;50.984;5.822;2023-02-23T09:22:41;71.65;;;32.45;;
24449;SDS011;13349;50.984;5.822;2023-02-23T09:25:13;71.07;;;32.58;;
24449;SDS011;13349;50.984;5.822;2023-02-23T09:27:44;68.57;;;30.92;;
24449;SDS011;13349;50.984;5.822;2023-02-23T09:30:12;71.30;;;32.47;;
24449;SDS011;13349;50.984;5.822;2023-02-23T09:32:42;76.47;;;33.60;;
24449;SDS011;13349;50.984;5.822;2023-02-23T09:35:10;75.50;;;32.05;;
24449;SDS011;13349;50.984;5.822;2023-02-23T09:37:37;71.18;;;32.35;;
24449;SDS011;13349;50.984;5.822;2023-02-23T09:40:04;74.95;;;31.77;;
24449;SDS011;13349;50.984;5.822;2023-02-23T09:42:35;72.15;;;32.85;;
24449;SDS011;13349;50.984;5.822;2023-02-23T09:45:13;72.10;;;32.13;;
24449;SDS011;13349;50.984;5.822;2023-02-23T09:47:50;77.22;;;34.10;;
24449;SDS011;13349;50.984;5.822;2023-02-23T09:50:26;75.05;;;32.80;;
24449;SDS011;13349;50.984;5.822;2023-02-23T09:52:57;69.57;;;31.50;;
24449;SDS011;13349;50.984;5.822;2023-02-23T09:55:28;72.65;;;31.52;;
24449;SDS011;13349;50.984;5.822;2023-02-23T09:57:57;76.85;;;31.80;;
24449;SDS011;13349;50.984;5.822;2023-02-23T10:00:35;73.65;;;31.45;;
24449;SDS011;13349;50.984;5.822;2023-02-23T10:03:12;73.72;;;32.92;;
24449;SDS011;13349;50.984;5.822;2023-02-23T10:05:45;73.50;;;31.10;;
24449;SDS011;13349;50.984;5.822;2023-02-23T10:08:22;73.47;;;30.42;;
24449;SDS011;13349;50.984;5.822;2023-02-23T10:11:00;68.10;;;30.35;;
24449;SDS011;13349;50.984;5.822;2023-02-23T10:13:37;75.28;;;31.35;;
24449;SDS011;13349;50.984;5.822;2023-02-23T10:16:16;71.70;;;29.92;;
24449;SDS011;13349;50.984;5.822;2023-02-23T10:18:52;73.90;;;31.50;;
24449;SDS011;13349;50.984;5.822;2023-02-23T10:21:26;74.20;;;32.25;;
24449;SDS011;13349;50.984;5.822;2023-02-23T10:23:58;66.93;;;30.42;;
24449;SDS011;13349;50.984;5.822;2023-02-23T10:26:31;69.53;;;30.83;;
24449;SDS011;13349;50.984;5.822;2023-02-23T10:29:04;64.88;;;29.00;;
24449;SDS011;13349;50.984;5.822;2023-02-23T10:31:48;64.80;;;29.08;;
24449;SDS011;13349;50.984;5.822;2023-02-23T10:34:19;63.15;;;28.13;;
24449;SDS011;13349;50.984;5.822;2023-02-23T10:36:49;62.75;;;26.65;;
24449;SDS011;13349;50.984;5.822;2023-02-23T10:39:21;64.78;;;28.40;;
24449;SDS011;13349;50.984;5.822;2023-02-23T10:41:48;59.92;;;26.67;;
24449;SDS011;13349;50.984;5.822;2023-02-23T10:44:17;56.67;;;25.25;;
24449;SDS011;13349;50.984;5.822;2023-02-23T10:46:48;54.15;;;25.80;;
24449;SDS011;13349;50.984;5.822;2023-02-23T10:49:20;57.15;;;26.02;;
24449;SDS011;13349;50.984;5.822;2023-02-23T10:51:50;50.60;;;24.77;;
24449;SDS011;13349;50.984;5.822;2023-02-23T10:54:33;48.40;;;22.98;;
24449;SDS011;13349;50.984;5.822;2023-02-23T10:57:02;51.22;;;24.40;;
24449;SDS011;13349;50.984;5.822;2023-02-23T10:59:31;53.60;;;24.15;;
24449;SDS011;13349;50.984;5.822;2023-02-23T11:02:05;47.35;;;23.23;;
24449;SDS011;13349;50.984;5.822;2023-02-23T11:04:50;43.55;;;22.30;;
24449;SDS011;13349;50.984;5.822;2023-02-23T11:07:21;46.03;;;23.00;;
24449;SDS011;13349;50.984;5.822;2023-02-23T11:09:53;41.95;;;20.40;;
24449;SDS011;13349;50.984;5.822;2023-02-23T11:12:20;39.30;;;20.17;;
24449;SDS011;13349;50.984;5.822;2023-02-23T11:14:51;36.10;;;18.98;;
24449;SDS011;13349;50.984;5.822;2023-02-23T11:17:25;35.50;;;18.17;;
24449;SDS011;13349;50.984;5.822;2023-02-23T11:19:57;32.70;;;17.35;;
24449;SDS011;13349;50.984;5.822;2023-02-23T11:24:57;40.33;;;18.65;;
24449;SDS011;13349;50.984;5.822;2023-02-23T11:27:25;31.48;;;16.65;;
24449;SDS011;13349;50.984;5.822;2023-02-23T11:29:54;30.95;;;17.35;;
24449;SDS011;13349;50.984;5.822;2023-02-23T11:32:27;32.63;;;17.35;;
24449;SDS011;13349;50.984;5.822;2023-02-23T11:35:11;30.52;;;16.10;;
24449;SDS011;13349;50.984;5.822;2023-02-23T11:37:51;30.25;;;16.02;;
24449;SDS011;13349;50.984;5.822;2023-02-23T11:40:21;33.33;;;17.35;;
24449;SDS011;13349;50.984;5.822;2023-02-23T11:42:50;31.35;;;16.48;;
24449;SDS011;13349;50.984;5.822;2023-02-23T11:45:19;30.77;;;16.60;;
24449;SDS011;13349;50.984;5.822;2023-02-23T11:47:49;27.80;;;16.13;;
24449;SDS011;13349;50.984;5.822;2023-02-23T11:50:22;28.35;;;15.75;;
24449;SDS011;13349;50.984;5.822;2023-02-23T11:52:53;29.73;;;16.10;;
24449;SDS011;13349;50.984;5.822;2023-02-23T11:55:24;30.58;;;16.40;;
24449;SDS011;13349;50.984;5.822;2023-02-23T11:57:52;30.05;;;16.33;;
24449;SDS011;13349;50.984;5.822;2023-02-23T12:00:32;28.45;;;15.55;;
24449;SDS011;13349;50.984;5.822;2023-02-23T12:03:01;31.45;;;15.60;;
24449;SDS011;13349;50.984;5.822;2023-02-23T12:05:31;30.02;;;16.10;;
24449;SDS011;13349;50.984;5.822;2023-02-23T12:08:01;29.77;;;16.42;;
24449;SDS011;13349;50.984;5.822;2023-02-23T12:10:32;30.45;;;15.50;;
24449;SDS011;13349;50.984;5.822;2023-02-23T12:13:08;27.23;;;14.95;;
24449;SDS011;13349;50.984;5.822;2023-02-23T12:15:43;33.47;;;15.88;;
24449;SDS011;13349;50.984;5.822;2023-02-23T12:18:17;32.15;;;16.67;;
24449;SDS011;13349;50.984;5.822;2023-02-23T12:20:56;33.58;;;16.48;;
24449;SDS011;13349;50.984;5.822;2023-02-23T12:23:29;30.08;;;15.75;;
24449;SDS011;13349;50.984;5.822;2023-02-23T12:26:03;30.80;;;15.52;;
24449;SDS011;13349;50.984;5.822;2023-02-23T12:28:35;28.58;;;15.27;;
24449;SDS011;13349;50.984;5.822;2023-02-23T12:31:15;29.08;;;16.10;;
24449;SDS011;13349;50.984;5.822;2023-02-23T12:33:50;27.08;;;15.13;;
24449;SDS011;13349;50.984;5.822;2023-02-23T12:36:23;24.92;;;14.23;;
24449;SDS011;13349;50.984;5.822;2023-02-23T12:38:56;24.80;;;14.50;;
24449;SDS011;13349;50.984;5.822;2023-02-23T12:41:31;23.50;;;14.35;;
24449;SDS011;13349;50.984;5.822;2023-02-23T12:44:02;25.50;;;14.13;;
24449;SDS011;13349;50.984;5.822;2023-02-23T12:46:40;25.75;;;13.77;;
24449;SDS011;13349;50.984;5.822;2023-02-23T12:49:18;20.77;;;13.52;;
24449;SDS011;13349;50.984;5.822;2023-02-23T12:51:54;25.75;;;14.13;;
24449;SDS011;13349;50.984;5.822;2023-02-23T12:54:30;23.67;;;14.43;;
24449;SDS011;13349;50.984;5.822;2023-02-23T12:57:01;25.20;;;15.77;;
24449;SDS011;13349;50.984;5.822;2023-02-23T13:02:57;31.02;;;17.77;;
24449;SDS011;13349;50.984;5.822;2023-02-23T13:05:45;27.50;;;16.83;;
24449;SDS011;13349;50.984;5.822;2023-02-23T13:08:18;31.58;;;18.10;;
24449;SDS011;13349;50.984;5.822;2023-02-23T13:10:54;28.80;;;17.52;;
24449;SDS011;13349;50.984;5.822;2023-02-23T13:13:29;32.40;;;18.50;;
24449;SDS011;13349;50.984;5.822;2023-02-23T13:16:04;34.33;;;18.27;;
24449;SDS011;13349;50.984;5.822;2023-02-23T13:18:40;29.67;;;17.02;;
24449;SDS011;13349;50.984;5.822;2023-02-23T13:21:14;28.77;;;16.40;;
24449;SDS011;13349;50.984;5.822;2023-02-23T13:23:52;30.88;;;17.17;;
24449;SDS011;13349;50.984;5.822;2023-02-23T13:26:27;29.38;;;16.25;;
24449;SDS011;13349;50.984;5.822;2023-02-23T13:29:04;31.23;;;17.40;;
24449;SDS011;13349;50.984;5.822;2023-02-23T13:31:40;30.70;;;17.20;;
24449;SDS011;13349;50.984;5.822;2023-02-23T13:34:10;31.67;;;17.00;;
24449;SDS011;13349;50.984;5.822;2023-02-23T13:36:42;33.38;;;18.08;;
24449;SDS011;13349;50.984;5.822;2023-02-23T13:39:16;29.65;;;16.15;;
24449;SDS011;13349;50.984;5.822;2023-02-23T13:42:04;29.83;;;17.13;;
24449;SDS011;13349;50.984;5.822;2023-02-23T13:44:40;31.25;;;16.67;;
24449;SDS011;13349;50.984;5.822;2023-02-23T13:47:15;33.80;;;17.10;;
24449;SDS011;13349;50.984;5.822;2023-02-23T13:49:56;32.97;;;17.05;;
24449;SDS011;13349;50.984;5.822;2023-02-23T13:52:31;31.58;;;17.65;;
24449;SDS011;13349;50.984;5.822;2023-02-23T13:55:09;32.90;;;17.77;;
24449;SDS011;13349;50.984;5.822;2023-02-23T13:58:12;29.63;;;17.08;;
24449;SDS011;13349;50.984;5.822;2023-02-23T14:00:41;30.38;;;16.52;;
24449;SDS011;13349;50.984;5.822;2023-02-23T14:03:20;31.30;;;17.75;;
24449;SDS011;13349;50.984;5.822;2023-02-23T14:05:51;31.50;;;16.48;;
24449;SDS011;13349;50.984;5.822;2023-02-23T14:08:26;31.58;;;16.20;;
24449;SDS011;13349;50.984;5.822;2023-02-23T14:10:56;28.23;;;16.42;;
24449;SDS011;13349;50.984;5.822;2023-02-23T14:13:25;30.95;;;16.55;;
24449;SDS011;13349;50.984;5.822;2023-02-23T14:16:07;26.85;;;15.40;;
24449;SDS011;13349;50.984;5.822;2023-02-23T14:18:50;31.63;;;16.48;;
24449;SDS011;13349;50.984;5.822;2023-02-23T14:21:27;30.48;;;16.30;;
24449;SDS011;13349;50.984;5.822;2023-02-23T14:24:04;33.53;;;16.90;;
24449;SDS011;13349;50.984;5.822;2023-02-23T14:26:46;30.40;;;16.27;;
24449;SDS011;13349;50.984;5.822;2023-02-23T14:32:49;28.17;;;15.65;;
24449;SDS011;13349;50.984;5.822;2023-02-23T14:35:37;31.90;;;15.80;;
24449;SDS011;13349;50.984;5.822;2023-02-23T14:38:21;26.05;;;15.20;;
24449;SDS011;13349;50.984;5.822;2023-02-23T14:40:58;25.77;;;14.93;;
24449;SDS011;13349;50.984;5.822;2023-02-23T14:43:31;27.67;;;15.38;;
24449;SDS011;13349;50.984;5.822;2023-02-23T14:46:07;29.20;;;15.35;;
24449;SDS011;13349;50.984;5.822;2023-02-23T14:48:40;31.35;;;16.63;;
24449;SDS011;13349;50.984;5.822;2023-02-23T14:51:12;29.92;;;15.77;;
24449;SDS011;13349;50.984;5.822;2023-02-23T14:53:45;29.42;;;15.82;;
24449;SDS011;13349;50.984;5.822;2023-02-23T14:56:19;27.08;;;15.50;;
24449;SDS011;13349;50.984;5.822;2023-02-23T14:58:51;27.02;;;15.48;;
24449;SDS011;13349;50.984;5.822;2023-02-23T15:01:32;30.38;;;15.80;;
24449;SDS011;13349;50.984;5.822;2023-02-23T15:04:08;29.20;;;15.38;;
24449;SDS011;13349;50.984;5.822;2023-02-23T15:06:37;28.13;;;14.90;;
24449;SDS011;13349;50.984;5.822;2023-02-23T15:09:07;29.90;;;16.13;;
24449;SDS011;13349;50.984;5.822;2023-02-23T15:11:43;29.83;;;16.17;;
24449;SDS011;13349;50.984;5.822;2023-02-23T15:14:14;27.98;;;15.88;;
24449;SDS011;13349;50.984;5.822;2023-02-23T15:16:42;27.27;;;14.77;;